Time;durP1;ratioP1;P1;durP2;ratioP2;P2;SDS_P1;SDS_P2;PMS_P1;PMS_P2;Temp;Humidity;BMP_temperature;BMP_pressure;BME280_temperature;BME280_humidity;BME280_pressure;Samples;Min_cycle;Max_cycle;Signal;HPM_P1;HPM_P2
2022/08/13 00:02:09;;;;;;;5.72;3.55;;;20.40;95.60;;;;;;5062047;28;20763;-78
2022/08/13 00:04:35;;;;;;;4.25;3.30;;;20.30;95.80;;;;;;5040184;28;20124;-77
2022/08/13 00:07:08;;;;;;;6.82;3.50;;;20.30;96.10;;;;;;5041837;28;20461;-77
2022/08/13 00:09:36;;;;;;;6.72;3.28;;;20.20;96.20;;;;;;5044063;28;20037;-77
2022/08/13 00:14:47;;;;;;;4.55;3.45;;;20.10;96.40;;;;;;5037014;28;20058;-77
2022/08/13 00:17:14;;;;;;;5.35;3.22;;;20.00;96.50;;;;;;5041986;28;20041;-77
2022/08/13 00:19:45;;;;;;;4.78;3.72;;;20.00;96.60;;;;;;5041826;28;20041;-78
2022/08/13 00:22:12;;;;;;;4.38;3.50;;;20.00;96.70;;;;;;5033798;28;21706;-78
2022/08/13 00:24:38;;;;;;;5.88;3.30;;;19.90;96.80;;;;;;5036815;28;20041;-77
2022/08/13 00:27:06;;;;;;;5.72;3.28;;;19.80;96.90;;;;;;5041284;28;20057;-78
2022/08/13 00:29:32;;;;;;;5.88;3.40;;;19.80;97.10;;;;;;5037059;28;20121;-77
2022/08/13 00:31:57;;;;;;;5.18;3.35;;;19.80;97.30;;;;;;5041423;28;20168;-80
2022/08/13 00:34:23;;;;;;;6.03;3.53;;;19.70;97.50;;;;;;5040691;28;20411;-77
2022/08/13 00:36:49;;;;;;;4.20;3.15;;;19.70;97.80;;;;;;5043334;28;20075;-78
2022/08/13 00:39:15;;;;;;;5.00;3.47;;;19.60;98.00;;;;;;5042071;28;20048;-78
2022/08/13 00:41:45;;;;;;;5.35;3.20;;;19.60;98.10;;;;;;5040283;28;20044;-77
2022/08/13 00:44:14;;;;;;;8.07;3.60;;;19.60;98.30;;;;;;5059160;28;20060;-78
2022/08/13 00:46:41;;;;;;;12.32;3.35;;;19.50;98.30;;;;;;5054486;28;20079;-77
2022/08/13 00:49:09;;;;;;;8.20;3.40;;;19.50;98.30;;;;;;5035687;28;20630;-76
2022/08/13 00:51:36;;;;;;;9.88;3.70;;;19.50;98.30;;;;;;5035990;28;20057;-76
2022/08/13 00:54:08;;;;;;;6.80;3.35;;;19.50;98.30;;;;;;5036131;28;20133;-78
2022/08/13 00:56:35;;;;;;;7.20;3.60;;;19.40;98.40;;;;;;5034498;28;20099;-77
2022/08/13 00:59:11;;;;;;;4.15;3.60;;;19.30;98.50;;;;;;5039460;28;20040;-77
2022/08/13 01:01:41;;;;;;;7.57;3.40;;;19.30;98.60;;;;;;5057595;28;20430;-78
2022/08/13 01:04:07;;;;;;;6.03;3.25;;;19.30;98.70;;;;;;5035034;28;20049;-76
2022/08/13 01:06:35;;;;;;;7.00;3.53;;;19.30;98.80;;;;;;5036541;28;20048;-78
2022/08/13 01:09:01;;;;;;;5.63;3.50;;;19.20;98.90;;;;;;5038296;28;20049;-77
2022/08/13 01:11:31;;;;;;;6.70;3.65;;;19.20;99.00;;;;;;5036807;28;20053;-77
2022/08/13 01:13:59;;;;;;;9.88;3.58;;;19.20;99.20;;;;;;5034060;28;20090;-76
2022/08/13 01:16:28;;;;;;;7.50;3.28;;;19.20;99.30;;;;;;5038556;28;20045;-76
2022/08/13 01:18:54;;;;;;;6.13;3.60;;;19.10;99.50;;;;;;5038760;28;20029;-76
2022/08/13 01:21:25;;;;;;;4.25;3.50;;;19.10;99.70;;;;;;5039136;28;20048;-77
2022/08/13 01:23:53;;;;;;;6.70;3.78;;;19.20;99.90;;;;;;5037523;28;20041;-76
2022/08/13 01:26:20;;;;;;;6.53;3.45;;;19.10;99.90;;;;;;5037380;28;20402;-77
2022/08/13 01:28:47;;;;;;;3.95;3.35;;;19.00;99.90;;;;;;5039649;28;20041;-76
2022/08/13 01:31:15;;;;;;;6.13;3.40;;;19.00;99.90;;;;;;5037568;28;20038;-78
2022/08/13 01:33:43;;;;;;;6.68;3.40;;;18.90;99.90;;;;;;5037435;28;20129;-80
2022/08/13 01:36:10;;;;;;;5.18;3.70;;;18.90;99.90;;;;;;5036365;28;20063;-77
2022/08/13 01:38:37;;;;;;;5.53;3.28;;;18.90;99.90;;;;;;5039662;28;20128;-79
2022/08/13 01:41:08;;;;;;;9.65;3.70;;;18.90;99.90;;;;;;5032929;28;20160;-76
2022/08/13 01:43:36;;;;;;;6.80;3.33;;;18.90;99.90;;;;;;5039593;28;20048;-76
2022/08/13 01:46:02;;;;;;;6.15;3.53;;;18.90;99.90;;;;;;5034463;28;20967;-79
2022/08/13 01:51:21;;;;;;;8.00;3.88;;;18.90;99.90;;;;;;5033674;28;20057;-76
2022/08/13 01:53:53;;;;;;;5.07;3.85;;;18.90;99.90;;;;;;5036738;28;20122;-77
2022/08/13 01:56:23;;;;;;;7.88;4.10;;;18.90;99.90;;;;;;5036398;28;20064;-76
2022/08/13 01:58:54;;;;;;;5.85;3.85;;;18.90;99.90;;;;;;5034905;28;20391;-78
2022/08/13 02:01:25;;;;;;;6.80;3.97;;;18.90;99.90;;;;;;5035746;28;20119;-77
2022/08/13 02:03:51;;;;;;;6.47;3.65;;;18.90;99.90;;;;;;5039127;28;20072;-76
2022/08/13 02:06:29;;;;;;;5.63;3.70;;;18.80;99.90;;;;;;5035795;28;20137;-75
2022/08/13 02:09:02;;;;;;;6.43;3.78;;;18.90;99.90;;;;;;5058355;28;20058;-77
2022/08/13 02:11:32;;;;;;;6.53;4.22;;;18.90;99.90;;;;;;5055584;28;20065;-77
2022/08/13 02:13:59;;;;;;;6.15;4.05;;;18.80;99.90;;;;;;5031325;28;20037;-78
2022/08/13 02:16:32;;;;;;;5.97;4.25;;;18.80;99.90;;;;;;5036883;28;20049;-76
2022/08/13 02:18:57;;;;;;;7.72;4.28;;;18.80;99.90;;;;;;5037438;28;20032;-76
2022/08/13 02:21:25;;;;;;;7.25;4.25;;;18.80;99.90;;;;;;5038125;28;20040;-76
2022/08/13 02:23:57;;;;;;;4.85;4.00;;;18.70;99.90;;;;;;5041169;28;20040;-76
2022/08/13 02:26:27;;;;;;;7.00;4.30;;;18.70;99.90;;;;;;5034317;28;20045;-77
2022/08/13 02:28:54;;;;;;;6.13;4.28;;;18.70;99.90;;;;;;5041600;28;20041;-78
2022/08/13 02:31:21;;;;;;;6.40;4.28;;;18.70;99.90;;;;;;5039415;28;20138;-78
2022/08/13 02:33:47;;;;;;;8.73;4.55;;;18.60;99.90;;;;;;5038809;28;20595;-77
2022/08/13 02:36:13;;;;;;;7.18;3.97;;;18.60;99.90;;;;;;5039578;28;20112;-77
2022/08/13 02:38:42;;;;;;;8.20;4.25;;;18.60;99.90;;;;;;5036627;28;20514;-77
2022/08/13 02:43:53;;;;;;;6.57;4.28;;;18.50;99.90;;;;;;5040168;28;20078;-79
2022/08/13 02:46:21;;;;;;;6.80;4.40;;;18.50;99.90;;;;;;5051130;28;20421;-77
2022/08/13 02:48:49;;;;;;;5.80;4.18;;;18.40;99.90;;;;;;5037967;28;20402;-76
2022/08/13 02:51:15;;;;;;;6.07;4.40;;;18.40;99.90;;;;;;5039355;28;20045;-76
2022/08/13 02:53:42;;;;;;;5.18;3.78;;;18.40;99.90;;;;;;5036707;28;20151;-78
2022/08/13 02:56:08;;;;;;;6.65;4.47;;;18.30;99.90;;;;;;5035900;28;20037;-77
2022/08/13 02:58:41;;;;;;;7.43;4.22;;;18.30;99.90;;;;;;5039865;28;20048;-77
2022/08/13 03:01:10;;;;;;;11.27;4.90;;;18.20;99.90;;;;;;5036881;28;20041;-76
2022/08/13 03:03:36;;;;;;;5.85;3.85;;;18.20;99.90;;;;;;5039620;28;20502;-77
2022/08/13 03:06:02;;;;;;;6.65;4.15;;;18.20;99.90;;;;;;5037684;28;20082;-76
2022/08/13 03:08:28;;;;;;;6.95;4.50;;;18.10;99.90;;;;;;5038405;28;20045;-79
2022/08/13 03:10:55;;;;;;;5.30;4.28;;;18.10;99.90;;;;;;5050731;28;20048;-78
2022/08/13 03:13:25;;;;;;;8.88;4.32;;;18.10;99.90;;;;;;5043031;28;20425;-77
2022/08/13 03:15:56;;;;;;;8.02;4.15;;;18.00;99.90;;;;;;5032265;28;20037;-77
2022/08/13 03:18:23;;;;;;;5.95;4.55;;;18.00;99.90;;;;;;5051555;28;20047;-76
2022/08/13 03:20:49;;;;;;;9.35;4.55;;;17.90;99.90;;;;;;5039247;28;20411;-77
2022/08/13 03:23:15;;;;;;;6.22;4.22;;;17.90;99.90;;;;;;5041381;28;20106;-77
2022/08/13 03:25:41;;;;;;;6.10;4.20;;;17.90;99.90;;;;;;5041792;28;20124;-76
2022/08/13 03:28:06;;;;;;;6.15;4.22;;;17.90;99.90;;;;;;5047647;28;20449;-77
2022/08/13 03:30:34;;;;;;;5.72;4.30;;;17.80;99.90;;;;;;5042640;28;20089;-78
2022/08/13 03:33:08;;;;;;;7.97;4.05;;;17.80;99.90;;;;;;5046519;28;20036;-77
2022/08/13 03:35:36;;;;;;;8.63;4.60;;;17.80;99.90;;;;;;5043117;28;20033;-77
2022/08/13 03:38:03;;;;;;;5.65;4.30;;;17.70;99.90;;;;;;5046476;28;20047;-77
2022/08/13 03:41:00;;;;;;;8.60;4.38;;;17.60;99.90;;;;;;5046314;28;20094;-79
2022/08/13 03:43:14;;;;;;;5.50;3.83;;;17.60;99.90;;;;;;5062007;28;20061;-76
2022/08/13 03:45:40;;;;;;;4.82;4.07;;;17.60;99.90;;;;;;5041085;28;20618;-77
2022/08/13 03:48:06;;;;;;;4.82;4.00;;;17.50;99.90;;;;;;5039650;28;20490;-76
2022/08/13 03:50:33;;;;;;;6.30;4.22;;;17.50;99.90;;;;;;5042517;28;20425;-76
2022/08/13 03:53:03;;;;;;;6.40;4.10;;;17.50;99.90;;;;;;5039957;28;20091;-76
2022/08/13 03:55:30;;;;;;;6.93;4.25;;;17.40;99.90;;;;;;5042095;28;20037;-77
2022/08/13 03:57:57;;;;;;;5.78;4.40;;;17.40;99.90;;;;;;5042171;28;20136;-77
2022/08/13 04:00:28;;;;;;;5.45;4.60;;;17.40;99.90;;;;;;5041600;28;20045;-77
2022/08/13 04:02:55;;;;;;;6.88;4.10;;;17.30;99.90;;;;;;5045321;28;20045;-77
2022/08/13 04:05:22;;;;;;;8.20;4.32;;;17.30;99.90;;;;;;5043122;28;20049;-77
2022/08/13 04:07:50;;;;;;;5.70;4.22;;;17.30;99.90;;;;;;5045388;28;20048;-76
2022/08/13 04:10:17;;;;;;;7.72;4.70;;;17.20;99.90;;;;;;5043537;28;20037;-77
2022/08/13 04:12:42;;;;;;;6.25;4.43;;;17.20;99.90;;;;;;5044975;28;20055;-76
2022/08/13 04:15:08;;;;;;;5.95;4.18;;;17.20;99.90;;;;;;5062636;28;20045;-77
2022/08/13 04:17:36;;;;;;;7.05;4.53;;;17.10;99.90;;;;;;5044517;28;20115;-77
2022/08/13 04:20:04;;;;;;;6.85;4.47;;;17.10;99.90;;;;;;5046017;28;20040;-76
2022/08/13 04:22:29;;;;;;;5.55;4.72;;;17.10;99.90;;;;;;5042996;28;20107;-77
2022/08/13 04:24:58;;;;;;;7.32;4.47;;;17.20;99.90;;;;;;5042089;28;20045;-76
2022/08/13 04:27:24;;;;;;;6.82;4.95;;;17.10;99.90;;;;;;5040449;28;20554;-76
2022/08/13 04:29:51;;;;;;;5.57;4.78;;;17.10;99.90;;;;;;5038934;28;20040;-76
2022/08/13 04:32:19;;;;;;;10.15;5.50;;;17.10;99.90;;;;;;5035428;28;20056;-77
2022/08/13 04:34:45;;;;;;;7.13;4.90;;;17.10;99.90;;;;;;5029427;28;20038;-76
2022/08/13 04:37:11;;;;;;;7.07;4.50;;;17.10;99.90;;;;;;5035697;28;20044;-77
2022/08/13 04:39:37;;;;;;;8.20;4.65;;;17.10;99.90;;;;;;5041890;28;20051;-78
2022/08/13 04:42:03;;;;;;;7.72;5.35;;;17.20;99.90;;;;;;5040682;28;20045;-78
2022/08/13 04:44:28;;;;;;;6.75;5.00;;;17.10;99.90;;;;;;5044218;28;20094;-78
2022/08/13 04:46:55;;;;;;;5.50;4.60;;;17.30;99.90;;;;;;5041429;28;20032;-76
2022/08/13 04:49:20;;;;;;;5.88;4.68;;;17.20;99.90;;;;;;5041121;28;20102;-77
2022/08/13 04:51:46;;;;;;;6.40;4.55;;;17.20;99.90;;;;;;5038718;28;21050;-77
2022/08/13 04:54:11;;;;;;;6.18;4.93;;;17.30;99.90;;;;;;5052396;28;20045;-77
2022/08/13 04:56:37;;;;;;;10.32;5.40;;;17.30;99.90;;;;;;5038714;28;20029;-78
2022/08/13 04:59:03;;;;;;;7.38;4.60;;;17.40;99.90;;;;;;5040390;28;20064;-76
2022/08/13 05:01:29;;;;;;;9.43;4.93;;;17.40;99.90;;;;;;5037804;28;20387;-76
2022/08/13 05:03:55;;;;;;;8.18;4.75;;;17.50;99.90;;;;;;5036253;28;20049;-76
2022/08/13 05:06:21;;;;;;;10.73;5.18;;;17.60;99.90;;;;;;5035788;28;20071;-76
2022/08/13 05:08:48;;;;;;;7.13;4.70;;;17.60;99.90;;;;;;5036919;28;20103;-76
2022/08/13 05:11:15;;;;;;;7.60;4.82;;;17.70;99.90;;;;;;5040039;28;20049;-77
2022/08/13 05:13:43;;;;;;;6.70;4.63;;;17.70;99.90;;;;;;5057940;28;20052;-77
2022/08/13 05:16:11;;;;;;;6.55;4.70;;;17.80;99.90;;;;;;5039331;28;20087;-76
2022/08/13 05:18:38;;;;;;;7.30;5.05;;;17.80;99.90;;;;;;5038193;28;20131;-80
2022/08/13 05:21:06;;;;;;;7.85;4.97;;;18.00;99.90;;;;;;5038806;28;20099;-77
2022/08/13 05:23:37;;;;;;;7.65;5.25;;;18.10;99.90;;;;;;5043302;28;20037;-76
2022/08/13 05:26:03;;;;;;;7.05;4.28;;;18.20;99.90;;;;;;5035834;28;20037;-76
2022/08/13 05:28:30;;;;;;;5.50;4.22;;;18.20;99.90;;;;;;5039060;28;20139;-77
2022/08/13 05:30:56;;;;;;;5.53;4.38;;;18.40;99.90;;;;;;5039040;28;20618;-76
2022/08/13 05:33:24;;;;;;;8.07;4.45;;;18.50;99.90;;;;;;5039569;28;20423;-78
2022/08/13 05:35:55;;;;;;;6.38;4.55;;;18.80;99.90;;;;;;5034578;28;20049;-77
2022/08/13 05:38:22;;;;;;;8.05;4.40;;;18.90;99.90;;;;;;5042134;28;20047;-78
2022/08/13 05:41:00;;;;;;;7.28;4.22;;;19.00;99.90;;;;;;5037259;28;20041;-78
2022/08/13 05:43:29;;;;;;;5.93;3.90;;;19.20;99.90;;;;;;5031797;28;20051;-77
2022/08/13 05:45:59;;;;;;;7.10;4.18;;;19.30;99.90;;;;;;5035304;28;20059;-80
2022/08/13 05:48:56;;;;;;;6.93;3.80;;;19.50;99.90;;;;;;5035597;28;20430;-77
2022/08/13 05:51:25;;;;;;;6.93;3.80;;;19.70;99.90;;;;;;5037035;28;20048;-78
2022/08/13 05:53:55;;;;;;;6.03;4.10;;;19.80;99.90;;;;;;5042258;28;20402;-78
2022/08/13 05:56:24;;;;;;;6.03;3.65;;;19.90;99.90;;;;;;5036513;28;20166;-79
2022/08/13 05:58:51;;;;;;;5.30;3.63;;;20.00;99.90;;;;;;5039544;28;20120;-77
2022/08/13 06:04:09;;;;;;;6.45;3.60;;;20.30;99.90;;;;;;5037718;28;20044;-78
2022/08/13 06:06:36;;;;;;;5.30;3.65;;;20.40;99.90;;;;;;5057682;28;20507;-78
2022/08/13 06:09:04;;;;;;;5.75;3.80;;;20.50;99.90;;;;;;5037866;28;20128;-78
2022/08/13 06:11:30;;;;;;;9.65;3.90;;;20.60;99.90;;;;;;5040225;28;20044;-80
2022/08/13 06:13:57;;;;;;;3.92;3.53;;;20.80;99.90;;;;;;5038339;28;20111;-78
2022/08/13 06:16:28;;;;;;;6.60;3.80;;;20.90;99.90;;;;;;5039086;28;20376;-77
2022/08/13 06:18:57;;;;;;;5.28;3.50;;;21.10;99.90;;;;;;5058165;28;20045;-79
2022/08/13 06:21:24;;;;;;;6.25;3.60;;;21.20;99.90;;;;;;5032829;28;20044;-77
2022/08/13 06:23:51;;;;;;;6.45;3.60;;;21.30;99.90;;;;;;5037270;28;20458;-78
2022/08/13 06:26:20;;;;;;;6.82;3.80;;;21.40;99.90;;;;;;5038934;28;20061;-76
2022/08/13 06:28:47;;;;;;;4.25;3.17;;;21.50;99.90;;;;;;5032481;28;20046;-76
2022/08/13 06:31:16;;;;;;;6.53;3.60;;;21.60;99.90;;;;;;5033273;28;20451;-80
2022/08/13 06:33:43;;;;;;;4.70;3.38;;;21.70;99.90;;;;;;5038101;28;20117;-77
2022/08/13 06:36:14;;;;;;;6.78;3.33;;;21.80;99.90;;;;;;5040410;28;20048;-77
2022/08/13 06:38:43;;;;;;;5.88;3.50;;;21.90;99.90;;;;;;5040334;28;20049;-76
2022/08/13 06:41:11;;;;;;;6.13;2.92;;;22.10;99.90;;;;;;5038937;28;20481;-78
2022/08/13 06:43:42;;;;;;;4.40;3.05;;;22.20;99.90;;;;;;5032327;28;20057;-77
2022/08/13 06:46:11;;;;;;;6.18;3.10;;;22.30;99.90;;;;;;5054084;28;20143;-76
2022/08/13 06:48:37;;;;;;;4.97;2.90;;;22.50;99.90;;;;;;5036680;28;20033;-78
2022/08/13 06:51:07;;;;;;;3.97;2.70;;;22.60;99.90;;;;;;5030349;28;20057;-79
2022/08/13 06:53:38;;;;;;;4.72;2.65;;;22.70;99.90;;;;;;5035718;28;20123;-79
2022/08/13 06:56:09;;;;;;;3.90;2.35;;;22.80;99.90;;;;;;5037505;28;20422;-77
2022/08/13 06:58:36;;;;;;;3.75;2.35;;;22.90;99.70;;;;;;5038343;28;20098;-77
2022/08/13 07:01:02;;;;;;;5.63;2.65;;;23.00;99.20;;;;;;5040031;28;20037;-77
2022/08/13 07:03:31;;;;;;;4.05;2.40;;;23.20;98.70;;;;;;5034781;28;20051;-77
2022/08/13 07:05:57;;;;;;;4.68;2.30;;;23.30;98.40;;;;;;5038351;28;20044;-77
2022/08/13 07:08:25;;;;;;;5.63;2.33;;;23.40;98.10;;;;;;5038099;28;20087;-77
2022/08/13 07:13:46;;;;;;;3.85;2.25;;;23.70;97.80;;;;;;5038579;28;20689;-76
2022/08/13 07:16:16;;;;;;;6.65;2.47;;;23.80;97.40;;;;;;5034658;28;20048;-78
2022/08/13 07:18:46;;;;;;;2.45;2.17;;;23.90;97.20;;;;;;5040546;28;20114;-77
2022/08/13 07:21:15;;;;;;;4.90;2.30;;;24.10;96.90;;;;;;5040997;28;20044;-77
2022/08/13 07:23:42;;;;;;;4.78;1.95;;;24.20;96.80;;;;;;5034194;28;20459;-77
2022/08/13 07:26:16;;;;;;;4.57;2.20;;;24.30;96.60;;;;;;5034888;28;20424;-77
2022/08/13 07:28:43;;;;;;;4.00;2.40;;;24.50;96.40;;;;;;5058972;28;20081;-79
2022/08/13 07:31:09;;;;;;;2.90;1.80;;;24.60;96.30;;;;;;5005850;28;20053;-77
2022/08/13 07:33:37;;;;;;;5.05;2.15;;;24.80;96.20;;;;;;5027170;28;20038;-77
2022/08/13 07:36:05;;;;;;;2.75;1.90;;;24.90;96.00;;;;;;5054674;28;20124;-79
2022/08/13 07:38:31;;;;;;;5.45;1.98;;;25.10;96.00;;;;;;5028044;28;20051;-77
2022/08/13 07:41:00;;;;;;;7.05;2.33;;;25.20;95.90;;;;;;5025349;28;20087;-77
2022/08/13 07:43:26;;;;;;;3.75;1.90;;;25.40;96.00;;;;;;5031006;28;20049;-77
2022/08/13 07:46:07;;;;;;;7.45;1.75;;;25.50;95.40;;;;;;5059491;28;20044;-77
2022/08/13 07:48:35;;;;;;;4.18;1.80;;;25.60;94.70;;;;;;5034576;28;20037;-77
2022/08/13 07:51:02;;;;;;;6.60;2.00;;;25.70;94.60;;;;;;5025253;28;20038;-76
2022/08/13 07:53:29;;;;;;;2.17;1.52;;;25.90;94.50;;;;;;5026344;28;20040;-78
2022/08/13 07:55:55;;;;;;;3.90;1.73;;;26.00;94.50;;;;;;5019155;28;20030;-77
2022/08/13 07:58:27;;;;;;;4.43;1.60;;;26.10;94.30;;;;;;5028258;28;20485;-76
2022/08/13 08:00:59;;;;;;;5.53;1.80;;;26.20;93.90;;;;;;5032365;28;20092;-77
2022/08/13 08:03:32;;;;;;;4.53;1.80;;;26.30;93.30;;;;;;5061718;28;20045;-77
2022/08/13 08:06:03;;;;;;;3.90;1.63;;;26.40;92.90;;;;;;5029272;28;20076;-77
2022/08/13 08:08:32;;;;;;;4.93;1.67;;;26.50;92.50;;;;;;5030477;28;20064;-76
2022/08/13 08:11:00;;;;;;;4.45;1.58;;;26.60;92.30;;;;;;5031359;28;20041;-76
2022/08/13 08:13:26;;;;;;;2.35;1.48;;;26.70;92.00;;;;;;5030729;28;20124;-77
2022/08/13 08:15:53;;;;;;;3.70;1.40;;;26.80;91.70;;;;;;5031695;28;20169;-78
2022/08/13 08:18:19;;;;;;;1.70;1.40;;;26.80;91.50;;;;;;5032917;28;20387;-77
2022/08/13 08:20:44;;;;;;;3.92;1.48;;;26.90;91.40;;;;;;5029967;28;20133;-77
2022/08/13 08:23:11;;;;;;;3.58;1.65;;;27.00;91.10;;;;;;5036410;28;20132;-78
2022/08/13 08:25:39;;;;;;;2.58;1.45;;;27.00;90.70;;;;;;5031616;28;20037;-77
2022/08/13 08:28:04;;;;;;;5.07;1.60;;;27.10;90.60;;;;;;5063900;28;20126;-78
2022/08/13 08:30:30;;;;;;;3.72;1.73;;;27.20;90.50;;;;;;5040290;28;20122;-78
2022/08/13 08:32:56;;;;;;;6.13;1.80;;;27.30;90.40;;;;;;5028558;28;20056;-79
2022/08/13 08:35:23;;;;;;;4.50;1.40;;;27.40;90.20;;;;;;5014375;28;20072;-76
2022/08/13 08:43:34;;;;;;;2.58;1.45;;;27.60;89.80;;;;;;5066091;28;20049;-78
2022/08/13 08:46:01;;;;;;;5.43;1.40;;;27.70;89.90;;;;;;5022298;28;20399;-78
2022/08/13 08:48:29;;;;;;;3.30;1.50;;;27.80;89.70;;;;;;5039906;28;20154;-78
2022/08/13 08:50:56;;;;;;;6.28;1.50;;;27.80;89.50;;;;;;5028733;28;20415;-77
2022/08/13 08:53:23;;;;;;;4.53;1.40;;;27.90;89.10;;;;;;5028339;28;20037;-77
2022/08/13 08:55:51;;;;;;;4.25;1.65;;;27.90;89.10;;;;;;5025216;28;20041;-79
2022/08/13 08:58:20;;;;;;;2.22;1.48;;;28.00;88.50;;;;;;5033337;28;20045;-78
2022/08/13 09:00:48;;;;;;;5.05;1.52;;;28.00;88.40;;;;;;5031295;28;20045;-77
2022/08/13 09:03:19;;;;;;;2.42;1.50;;;28.00;88.30;;;;;;5042627;28;20392;-77
2022/08/13 09:05:48;;;;;;;3.33;1.60;;;28.00;88.50;;;;;;5027874;28;20045;-78
2022/08/13 09:08:18;;;;;;;5.88;1.33;;;28.10;88.00;;;;;;5031773;28;20384;-77
2022/08/13 09:10:48;;;;;;;2.97;1.33;;;28.00;87.90;;;;;;5029899;28;20046;-78
2022/08/13 09:13:19;;;;;;;3.55;1.52;;;28.10;87.30;;;;;;5038417;28;20046;-77
2022/08/13 09:15:48;;;;;;;3.83;1.50;;;28.10;86.80;;;;;;5030155;28;20041;-77
2022/08/13 09:18:17;;;;;;;3.05;1.50;;;28.10;86.00;;;;;;5039910;28;20037;-78
2022/08/13 09:20:43;;;;;;;4.70;1.50;;;28.10;85.80;;;;;;5040817;28;20086;-78
2022/08/13 09:23:17;;;;;;;2.55;1.20;;;28.10;85.80;;;;;;5015485;28;20049;-78
2022/08/13 09:25:48;;;;;;;5.93;1.40;;;28.10;84.70;;;;;;5031046;28;20048;-77
2022/08/13 09:28:23;;;;;;;4.70;1.40;;;28.10;84.80;;;;;;5034290;28;20041;-77
2022/08/13 09:30:54;;;;;;;2.00;1.35;;;28.10;84.70;;;;;;5033558;28;20499;-78
2022/08/13 09:33:22;;;;;;;3.17;1.25;;;28.10;84.30;;;;;;5032616;28;20033;-78
2022/08/13 09:35:50;;;;;;;2.70;1.20;;;28.10;83.10;;;;;;5016783;28;20040;-78
2022/08/13 09:38:18;;;;;;;5.90;1.60;;;28.10;83.20;;;;;;5025985;28;20414;-78
2022/08/13 09:41:09;;;;;;;3.85;1.50;;;28.10;83.40;;;;;;5060729;28;20168;-77
2022/08/13 09:43:40;;;;;;;3.42;1.48;;;28.20;84.20;;;;;;5042848;28;20045;-78
2022/08/13 09:46:07;;;;;;;3.10;1.40;;;28.30;82.40;;;;;;5011407;28;20041;-79
2022/08/13 09:48:34;;;;;;;2.53;1.30;;;28.30;82.50;;;;;;5053168;28;20058;-76
2022/08/13 09:51:03;;;;;;;3.63;1.17;;;28.30;82.80;;;;;;5033216;28;20038;-76
2022/08/13 09:53:29;;;;;;;1.70;1.10;;;28.40;82.10;;;;;;5030826;28;20645;-75
2022/08/13 09:55:59;;;;;;;2.08;1.30;;;28.40;81.90;;;;;;5064025;28;20048;-78
2022/08/13 09:58:25;;;;;;;2.42;1.20;;;28.40;81.40;;;;;;5020127;28;20487;-77
2022/08/13 10:00:52;;;;;;;7.57;1.50;;;28.50;81.60;;;;;;5035281;28;20588;-78
2022/08/13 10:03:18;;;;;;;4.35;1.40;;;28.50;81.00;;;;;;5024014;28;20069;-77
2022/08/13 10:05:47;;;;;;;2.92;1.27;;;28.60;80.80;;;;;;5041772;28;20041;-76
2022/08/13 10:08:17;;;;;;;2.42;1.27;;;28.60;80.30;;;;;;5031006;28;20045;-77
2022/08/13 10:10:45;;;;;;;3.00;1.30;;;28.60;79.70;;;;;;5026645;28;20103;-77
2022/08/13 10:13:14;;;;;;;3.33;1.30;;;28.70;79.70;;;;;;5034995;28;20587;-77
2022/08/13 10:15:39;;;;;;;3.72;1.40;;;28.80;80.10;;;;;;5025602;28;20045;-77
2022/08/13 10:18:05;;;;;;;2.92;1.40;;;28.80;80.00;;;;;;5030988;28;20041;-77
2022/08/13 10:20:45;;;;;;;6.72;1.35;;;28.90;79.60;;;;;;5036149;28;20049;-77
2022/08/13 10:23:13;;;;;;;3.38;1.38;;;28.90;78.60;;;;;;5062855;28;20111;-78
2022/08/13 10:25:41;;;;;;;4.47;1.20;;;29.00;79.80;;;;;;5031293;28;20040;-74
2022/08/13 10:28:22;;;;;;;3.30;1.40;;;29.10;79.50;;;;;;5034571;28;20045;-77
2022/08/13 10:30:47;;;;;;;3.17;1.38;;;29.10;78.90;;;;;;4995245;28;20091;-78
2022/08/13 10:33:15;;;;;;;5.60;1.50;;;29.20;79.00;;;;;;5037035;28;20396;-76
2022/08/13 10:35:42;;;;;;;3.40;1.48;;;29.30;79.00;;;;;;5037469;28;20052;-79
2022/08/13 10:38:12;;;;;;;4.10;1.20;;;29.30;79.00;;;;;;5043881;28;20041;-79
2022/08/13 10:40:38;;;;;;;3.08;1.30;;;29.40;79.00;;;;;;5030140;28;20637;-78
2022/08/13 10:43:05;;;;;;;5.50;1.20;;;29.50;77.70;;;;;;5058266;28;20090;-79
2022/08/13 10:45:31;;;;;;;1.70;1.20;;;29.60;75.80;;;;;;5033711;28;20250;-78
2022/08/13 10:47:57;;;;;;;4.03;1.30;;;29.60;75.10;;;;;;5024561;28;20144;-80
2022/08/13 10:50:31;;;;;;;2.03;1.30;;;29.70;74.60;;;;;;5032459;28;20053;-81
2022/08/13 10:52:58;;;;;;;2.05;1.33;;;29.70;73.80;;;;;;5056082;28;20046;-80
2022/08/13 10:55:24;;;;;;;2.85;1.30;;;29.90;75.30;;;;;;5036467;28;20042;-79
2022/08/13 10:57:51;;;;;;;1.98;1.20;;;30.00;75.80;;;;;;5072156;28;20044;-78
2022/08/13 11:00:17;;;;;;;4.85;1.30;;;30.10;75.60;;;;;;5035184;28;20053;-79
2022/08/13 11:02:49;;;;;;;1.92;1.30;;;30.20;74.90;;;;;;5023182;28;20041;-79
2022/08/13 11:05:16;;;;;;;4.82;1.23;;;30.20;73.70;;;;;;5053928;28;20037;-80
2022/08/13 11:07:48;;;;;;;1.58;1.20;;;30.30;73.20;;;;;;5047020;28;20182;-77
2022/08/13 11:10:13;;;;;;;2.17;1.20;;;30.50;73.50;;;;;;5039559;28;20127;-78
2022/08/13 11:12:50;;;;;;;2.95;1.55;;;30.50;73.00;;;;;;5044781;28;20068;-79
2022/08/13 11:15:20;;;;;;;2.03;1.27;;;30.60;72.80;;;;;;5046185;28;20045;-78
2022/08/13 11:17:48;;;;;;;1.83;1.27;;;30.80;73.30;;;;;;5034878;28;20127;-79
2022/08/13 11:20:17;;;;;;;2.53;1.27;;;30.80;73.20;;;;;;5041430;28;20049;-78
2022/08/13 11:22:43;;;;;;;2.30;1.48;;;30.90;72.50;;;;;;5044947;28;20047;-77
2022/08/13 11:25:09;;;;;;;1.88;1.10;;;31.00;72.00;;;;;;5046059;28;20041;-78
2022/08/13 11:27:35;;;;;;;1.80;1.20;;;31.10;72.30;;;;;;5039561;28;20052;-78
2022/08/13 11:30:02;;;;;;;6.10;1.48;;;31.30;72.40;;;;;;5062770;28;20076;-80
2022/08/13 11:32:28;;;;;;;4.13;1.20;;;31.30;71.80;;;;;;5027606;28;20041;-79
2022/08/13 11:34:54;;;;;;;3.03;1.20;;;31.40;71.40;;;;;;5036702;28;20045;-79
2022/08/13 11:37:20;;;;;;;2.65;1.20;;;31.50;70.50;;;;;;5018905;28;20048;-81
2022/08/13 11:39:45;;;;;;;1.90;1.30;;;31.50;69.60;;;;;;5021564;28;20037;-81
2022/08/13 11:42:11;;;;;;;3.13;1.45;;;31.60;70.10;;;;;;5040068;28;20068;-80
2022/08/13 11:44:37;;;;;;;6.20;1.10;;;31.80;70.50;;;;;;5038463;28;20037;-80
2022/08/13 11:47:02;;;;;;;3.65;1.30;;;31.90;70.00;;;;;;5034866;28;20074;-79
2022/08/13 11:49:28;;;;;;;3.35;1.30;;;32.00;69.10;;;;;;5041568;28;20053;-80
2022/08/13 11:51:53;;;;;;;4.70;1.30;;;32.10;69.20;;;;;;5064015;28;20048;-80
2022/08/13 11:54:24;;;;;;;2.47;1.15;;;32.30;69.00;;;;;;5027274;28;20063;-78
2022/08/13 11:56:50;;;;;;;1.80;1.15;;;32.40;68.80;;;;;;5025295;28;20048;-79
2022/08/13 11:59:15;;;;;;;2.70;1.10;;;32.50;68.20;;;;;;5033135;28;20094;-80
2022/08/13 12:01:41;;;;;;;1.60;1.13;;;32.40;67.00;;;;;;5017126;28;20558;-79
2022/08/13 12:04:07;;;;;;;2.67;1.40;;;32.50;67.50;;;;;;5038101;28;20066;-79
2022/08/13 12:06:33;;;;;;;3.10;1.10;;;32.50;67.40;;;;;;5040145;28;20052;-80
2022/08/13 12:08:58;;;;;;;3.10;1.17;;;32.20;66.00;;;;;;5020084;28;20121;-80
2022/08/13 12:11:25;;;;;;;2.35;1.20;;;32.20;66.20;;;;;;5043094;28;20043;-76
2022/08/13 12:13:51;;;;;;;4.30;1.30;;;32.40;66.70;;;;;;5024926;28;20391;-78
2022/08/13 12:16:16;;;;;;;2.72;1.23;;;32.60;66.50;;;;;;5029491;28;20049;-77
2022/08/13 12:18:42;;;;;;;5.20;1.52;;;32.90;65.90;;;;;;5009831;28;20102;-79
2022/08/13 12:21:08;;;;;;;1.92;1.13;;;33.00;65.40;;;;;;5033244;28;20052;-79
2022/08/13 12:23:33;;;;;;;2.35;1.00;;;33.20;65.60;;;;;;5037824;28;20535;-78
2022/08/13 12:25:59;;;;;;;2.35;1.17;;;33.10;64.90;;;;;;5036295;28;20475;-79
2022/08/13 12:28:27;;;;;;;3.33;1.35;;;33.20;64.70;;;;;;5019890;28;20407;-78
2022/08/13 12:30:58;;;;;;;6.03;1.38;;;33.30;64.80;;;;;;5046496;28;20045;-80
2022/08/13 12:33:26;;;;;;;1.42;1.30;;;33.50;65.00;;;;;;5042989;28;20056;-78
2022/08/13 12:35:51;;;;;;;1.98;1.10;;;33.70;64.70;;;;;;5042695;28;20040;-80
2022/08/13 12:38:17;;;;;;;3.92;1.20;;;33.90;65.10;;;;;;5046265;28;20395;-78
2022/08/13 12:40:45;;;;;;;9.05;1.63;;;34.00;64.90;;;;;;5016399;28;20048;-79
2022/08/13 12:43:11;;;;;;;4.85;1.23;;;34.00;64.30;;;;;;5045674;28;20049;-79
2022/08/13 12:45:38;;;;;;;2.35;1.13;;;34.10;64.20;;;;;;5019163;28;20041;-78
2022/08/13 12:48:11;;;;;;;4.07;1.20;;;34.30;64.80;;;;;;5036054;28;20048;-80
2022/08/13 12:50:38;;;;;;;;;;;34.20;64.40;;;;;;5041017;28;20106;-80
2022/08/13 12:53:05;;;;;;;2.22;1.05;;;34.30;64.10;;;;;;5066980;28;19925;-78
2022/08/13 12:55:32;;;;;;;3.10;1.17;;;34.40;63.90;;;;;;5054239;28;20060;-78
2022/08/13 12:57:58;;;;;;;2.58;1.27;;;34.50;63.50;;;;;;5033610;28;20395;-80
2022/08/13 13:00:25;;;;;;;3.00;1.23;;;34.50;63.40;;;;;;5040788;28;20100;-80
2022/08/13 13:02:51;;;;;;;3.42;1.40;;;34.60;63.00;;;;;;5035726;28;20045;-80
2022/08/13 13:05:16;;;;;;;2.90;1.10;;;34.40;61.60;;;;;;5017251;28;20067;-82
2022/08/13 13:07:47;;;;;;;3.75;1.33;;;34.50;61.20;;;;;;5045627;28;20037;-81
2022/08/13 13:10:13;;;;;;;5.22;1.15;;;34.60;62.30;;;;;;5042923;28;20045;-83
2022/08/13 13:12:38;;;;;;;2.33;1.10;;;34.60;62.50;;;;;;5018920;28;20159;-82